createdAt,value
2022-09-18T00:01:38.317Z,7.10
2022-09-18T00:04:09.488Z,6.80
2022-09-18T00:06:39.562Z,7.37
2022-09-18T00:09:11.680Z,6.90
2022-09-18T00:11:42.075Z,6.63
2022-09-18T00:14:13.128Z,6.80
2022-09-18T00:16:41.430Z,7.00
2022-09-18T00:19:10.013Z,7.37
2022-09-18T00:21:41.223Z,7.10
2022-09-18T00:24:10.781Z,7.67
2022-09-18T00:26:39.183Z,8.13
2022-09-18T00:29:07.530Z,7.17
2022-09-18T00:31:37.679Z,7.90
2022-09-18T00:34:08.712Z,7.90
2022-09-18T00:36:38.348Z,7.17
2022-09-18T00:39:07.899Z,8.00
2022-09-18T00:41:40.082Z,7.17
2022-09-18T00:44:42.356Z,7.63
2022-09-18T00:47:27.097Z,6.77
2022-09-18T00:50:01.116Z,7.17
2022-09-18T00:52:34.147Z,7.50
2022-09-18T00:55:05.863Z,6.60
2022-09-18T00:57:40.445Z,7.60
2022-09-18T01:00:11.925Z,7.50
2022-09-18T01:02:41.067Z,8.20
2022-09-18T01:05:10.755Z,7.43
2022-09-18T01:07:50.065Z,7.93
2022-09-18T01:10:33.928Z,7.70
2022-09-18T01:13:11.648Z,7.00
2022-09-18T01:15:49.079Z,6.53
2022-09-18T01:18:25.325Z,7.10
2022-09-18T01:21:11.532Z,7.10
2022-09-18T01:24:22.436Z,6.60
2022-09-18T01:26:56.811Z,7.20
2022-09-18T01:29:43.695Z,7.60
2022-09-18T01:32:19.648Z,6.53
2022-09-18T01:34:52.927Z,7.00
2022-09-18T01:37:29.006Z,6.97
2022-09-18T01:40:01.311Z,7.23
2022-09-18T01:42:32.024Z,6.73
2022-09-18T01:45:06.825Z,6.97
2022-09-18T01:47:40.594Z,6.77
2022-09-18T01:50:11.493Z,7.23
2022-09-18T01:52:45.997Z,6.73
2022-09-18T01:55:18.811Z,7.00
2022-09-18T01:57:53.567Z,6.90
2022-09-18T02:00:24.900Z,6.87
2022-09-18T02:02:59.545Z,6.53
2022-09-18T02:05:34.639Z,6.40
2022-09-18T02:08:10.878Z,7.23
2022-09-18T02:10:43.674Z,6.70
2022-09-18T02:13:18.137Z,7.20
2022-09-18T02:15:50.502Z,6.37
2022-09-18T02:18:25.707Z,6.43
2022-09-18T02:20:56.086Z,6.90
2022-09-18T02:23:24.934Z,6.13
2022-09-18T02:25:56.658Z,6.83
2022-09-18T02:28:27.226Z,6.63
2022-09-18T02:31:00.219Z,5.83
2022-09-18T02:33:30.954Z,6.47
2022-09-18T02:36:34.494Z,6.27
2022-09-18T02:39:15.002Z,5.57
2022-09-18T02:41:50.409Z,6.67
2022-09-18T02:44:24.232Z,5.80
2022-09-18T02:47:04.010Z,6.17
2022-09-18T02:49:44.711Z,6.30
2022-09-18T02:52:19.177Z,5.63
2022-09-18T02:54:54.010Z,6.03
2022-09-18T02:57:30.111Z,5.70
2022-09-18T03:00:01.680Z,6.43
2022-09-18T03:02:33.335Z,6.67
2022-09-18T03:05:02.106Z,5.83
2022-09-18T03:07:41.386Z,5.93
2022-09-18T03:10:12.768Z,6.03
2022-09-18T03:12:41.359Z,6.33
2022-09-18T03:15:11.085Z,6.27
2022-09-18T03:17:40.569Z,5.67
2022-09-18T03:20:09.527Z,6.83
2022-09-18T03:22:37.764Z,6.43
2022-09-18T03:25:06.768Z,6.17
2022-09-18T03:27:35.195Z,5.60
2022-09-18T03:30:03.742Z,6.07
2022-09-18T03:32:34.334Z,6.47
2022-09-18T03:35:03.945Z,6.20
2022-09-18T03:37:32.424Z,6.10
2022-09-18T03:40:02.790Z,6.30
2022-09-18T03:42:30.907Z,6.53
2022-09-18T03:45:01.574Z,6.33
2022-09-18T03:47:33.069Z,6.03
2022-09-18T03:50:07.104Z,6.80
2022-09-18T03:52:37.326Z,6.67
2022-09-18T03:55:23.801Z,6.60
2022-09-18T03:58:08.075Z,6.67
2022-09-18T04:00:45.887Z,6.40
2022-09-18T04:03:22.980Z,6.10
2022-09-18T04:06:15.354Z,6.57
2022-09-18T04:09:07.659Z,6.63
2022-09-18T04:11:43.886Z,5.93
2022-09-18T04:14:12.415Z,7.03
2022-09-18T04:16:40.840Z,7.13
2022-09-18T04:19:10.013Z,6.70
2022-09-18T04:21:40.934Z,6.67
2022-09-18T04:24:09.110Z,6.93
2022-09-18T04:26:37.770Z,6.83
2022-09-18T04:29:06.741Z,7.40
2022-09-18T04:31:36.564Z,7.20
2022-09-18T04:34:08.920Z,7.33
2022-09-18T04:36:37.149Z,7.03
2022-09-18T04:39:06.612Z,7.00
2022-09-18T04:41:36.872Z,7.50
2022-09-18T04:44:06.607Z,7.27
2022-09-18T04:46:35.612Z,7.00
2022-09-18T04:49:04.513Z,7.43
2022-09-18T04:51:33.071Z,7.67
2022-09-18T04:54:01.469Z,7.33
2022-09-18T04:56:31.136Z,7.70
2022-09-18T04:58:59.981Z,6.90
2022-09-18T05:01:28.577Z,7.27
2022-09-18T05:03:56.774Z,7.47
2022-09-18T05:06:32.854Z,7.37
2022-09-18T05:09:02.224Z,7.00
2022-09-18T05:11:31.794Z,6.80
2022-09-18T05:14:00.027Z,6.87
2022-09-18T05:16:31.514Z,6.47
2022-09-18T05:19:26.148Z,6.40
2022-09-18T05:22:01.218Z,6.03
2022-09-18T05:24:29.472Z,6.67
2022-09-18T05:26:59.127Z,7.13
2022-09-18T05:29:27.271Z,6.67
2022-09-18T05:32:01.916Z,7.03
2022-09-18T05:34:30.043Z,7.13
2022-09-18T05:36:58.214Z,6.47
2022-09-18T05:39:26.737Z,7.13
2022-09-18T05:41:59.098Z,7.17
2022-09-18T05:44:27.278Z,6.77
2022-09-18T05:46:55.616Z,7.00
2022-09-18T05:49:23.930Z,7.07
2022-09-18T05:51:52.191Z,6.83
2022-09-18T05:54:21.999Z,6.90
2022-09-18T05:56:51.993Z,7.23
2022-09-18T05:59:21.850Z,7.07
2022-09-18T06:01:50.235Z,7.40
2022-09-18T06:04:24.588Z,6.40
2022-09-18T06:07:06.482Z,7.00
2022-09-18T06:09:34.700Z,6.70
2022-09-18T06:12:03.252Z,6.37
2022-09-18T06:14:36.653Z,6.13
2022-09-18T06:17:05.520Z,6.53
2022-09-18T06:19:36.365Z,6.53
2022-09-18T06:22:04.492Z,5.77
2022-09-18T06:24:34.588Z,6.57
2022-09-18T06:27:15.219Z,6.43
2022-09-18T06:29:44.682Z,6.57
2022-09-18T06:32:16.361Z,6.90
2022-09-18T06:34:44.603Z,6.87
2022-09-18T06:37:16.250Z,6.83
2022-09-18T06:39:44.708Z,6.97
2022-09-18T06:42:32.778Z,7.10
2022-09-18T06:45:09.629Z,7.77
2022-09-18T06:47:39.494Z,6.10
2022-09-18T06:50:09.515Z,7.17
2022-09-18T06:52:38.532Z,7.63
2022-09-18T06:55:07.716Z,6.23
2022-09-18T06:57:35.898Z,6.17
2022-09-18T07:00:06.150Z,6.27
2022-09-18T07:02:40.083Z,6.03
2022-09-18T07:05:29.972Z,6.00
2022-09-18T07:08:00.049Z,5.27
2022-09-18T07:10:30.702Z,5.27
2022-09-18T07:13:02.317Z,5.37
2022-09-18T07:15:32.964Z,5.97
2022-09-18T07:18:04.226Z,4.90
2022-09-18T07:20:32.718Z,5.67
2022-09-18T07:23:02.793Z,5.60
2022-09-18T07:25:46.723Z,5.07
2022-09-18T07:28:16.336Z,5.40
2022-09-18T07:30:54.676Z,5.33
2022-09-18T07:33:24.522Z,5.40
2022-09-18T07:35:52.964Z,5.30
2022-09-18T07:38:24.977Z,5.20
2022-09-18T07:41:02.083Z,4.70
2022-09-18T07:43:32.386Z,4.73
2022-09-18T07:46:02.500Z,4.27
2022-09-18T07:48:35.089Z,3.93
2022-09-18T07:51:17.484Z,4.10
2022-09-18T07:53:49.459Z,3.90
2022-09-18T07:56:25.980Z,4.20
2022-09-18T07:58:56.202Z,4.60
2022-09-18T08:01:28.376Z,4.23
2022-09-18T08:04:00.109Z,3.90
2022-09-18T08:06:37.484Z,4.10
2022-09-18T08:09:28.261Z,4.13
2022-09-18T08:12:02.865Z,4.60
2022-09-18T08:14:51.616Z,3.40
2022-09-18T08:17:25.790Z,3.53
2022-09-18T08:20:31.072Z,3.70
2022-09-18T08:23:12.543Z,3.87
2022-09-18T08:25:42.462Z,4.00
2022-09-18T08:28:11.557Z,3.17
2022-09-18T08:30:48.461Z,3.73
2022-09-18T08:33:17.249Z,3.33
2022-09-18T08:35:47.396Z,3.07
2022-09-18T08:38:26.072Z,3.23
2022-09-18T08:41:33.165Z,3.30
2022-09-18T08:44:06.937Z,3.20
2022-09-18T08:46:42.143Z,2.97
2022-09-18T08:49:23.438Z,3.30
2022-09-18T08:52:01.128Z,2.70
2022-09-18T08:54:41.901Z,3.00
2022-09-18T08:57:29.842Z,3.10
2022-09-18T09:00:13.512Z,2.67
2022-09-18T09:02:49.026Z,2.53
2022-09-18T09:05:21.512Z,3.07
2022-09-18T09:08:14.173Z,2.63
2022-09-18T09:10:48.535Z,2.50
2022-09-18T09:13:50.326Z,2.30
2022-09-18T09:16:28.664Z,2.90
2022-09-18T09:19:00.964Z,2.37
2022-09-18T09:21:48.977Z,2.07
2022-09-18T09:24:31.466Z,2.07
2022-09-18T09:27:17.456Z,2.00
2022-09-18T09:30:07.221Z,1.90
2022-09-18T09:32:46.048Z,1.90
2022-09-18T09:35:52.621Z,1.87
2022-09-18T09:38:40.712Z,1.80
2022-09-18T09:41:18.207Z,1.50
2022-09-18T09:43:53.430Z,1.70
2022-09-18T09:46:37.563Z,1.50
2022-09-18T09:49:12.310Z,1.50
2022-09-18T09:51:55.021Z,1.50
2022-09-18T09:54:23.381Z,1.73
2022-09-18T09:57:03.717Z,1.40
2022-09-18T09:59:39.846Z,1.50
2022-09-18T10:02:57.631Z,1.40
2022-09-18T10:05:35.904Z,1.33
2022-09-18T10:08:07.218Z,1.27
2022-09-18T10:10:43.284Z,1.60
2022-09-18T10:13:18.268Z,1.20
2022-09-18T10:15:48.807Z,1.47
2022-09-18T10:18:28.093Z,1.23
2022-09-18T10:20:59.838Z,1.10
2022-09-18T10:23:33.971Z,1.10
2022-09-18T10:26:04.636Z,1.20
2022-09-18T10:28:35.337Z,1.30
2022-09-18T10:31:07.186Z,1.27
2022-09-18T10:33:40.059Z,1.03
2022-09-18T10:36:25.955Z,1.40
2022-09-18T10:38:56.234Z,1.80
2022-09-18T10:41:34.534Z,1.40
2022-09-18T10:44:08.220Z,1.37
2022-09-18T10:46:50.820Z,1.57
2022-09-18T10:49:21.531Z,1.33
2022-09-18T10:51:49.756Z,1.30
2022-09-18T10:54:23.224Z,1.53
2022-09-18T10:57:31.712Z,1.40
2022-09-18T11:00:18.185Z,3.60
2022-09-18T11:02:49.511Z,3.43
2022-09-18T11:05:22.578Z,2.20
2022-09-18T11:07:56.170Z,1.30
2022-09-18T11:10:26.825Z,1.60
2022-09-18T11:12:58.684Z,1.70
2022-09-18T11:15:41.345Z,1.90
2022-09-18T11:18:16.201Z,1.43
2022-09-18T11:20:50.641Z,1.60
2022-09-18T11:23:29.367Z,1.17
2022-09-18T11:26:20.437Z,1.37
2022-09-18T11:29:08.906Z,1.47
2022-09-18T11:31:45.142Z,2.17
2022-09-18T11:34:23.917Z,1.10
2022-09-18T11:36:55.091Z,1.50
2022-09-18T11:39:29.772Z,2.00
2022-09-18T11:41:58.183Z,1.87
2022-09-18T11:44:29.236Z,1.93
2022-09-18T11:47:17.531Z,1.40
2022-09-18T11:49:50.617Z,1.70
2022-09-18T11:52:22.052Z,1.80
2022-09-18T11:55:04.948Z,1.50
2022-09-18T11:57:36.953Z,1.80
2022-09-18T12:00:09.327Z,2.00
2022-09-18T12:02:53.280Z,2.10
2022-09-18T12:05:28.407Z,1.70
2022-09-18T12:08:11.672Z,1.30
2022-09-18T12:10:54.018Z,1.67
2022-09-18T12:13:45.916Z,1.60
2022-09-18T12:16:20.615Z,1.50
2022-09-18T12:18:59.621Z,1.30
2022-09-18T12:21:37.535Z,1.70
2022-09-18T12:24:13.137Z,1.67
2022-09-18T12:26:53.169Z,1.67
2022-09-18T12:29:36.461Z,1.43
2022-09-18T12:32:14.576Z,1.60
2022-09-18T12:34:51.656Z,1.83
2022-09-18T12:37:34.909Z,1.53
2022-09-18T12:40:34.930Z,1.60
2022-09-18T12:43:29.517Z,1.53
2022-09-18T12:46:25.499Z,1.40
2022-09-18T12:49:06.832Z,1.60
2022-09-18T12:51:43.641Z,1.70
2022-09-18T12:54:44.314Z,1.90
2022-09-18T12:57:25.474Z,1.60
2022-09-18T12:59:58.587Z,1.90
2022-09-18T13:02:39.707Z,1.47
2022-09-18T13:05:14.320Z,1.73
2022-09-18T13:07:51.351Z,1.80
2022-09-18T13:10:23.034Z,1.70
2022-09-18T13:12:58.355Z,1.57
2022-09-18T13:15:29.452Z,1.93
2022-09-18T13:18:08.575Z,1.80
2022-09-18T13:20:42.858Z,2.10
2022-09-18T13:23:18.147Z,2.10
2022-09-18T13:25:49.381Z,1.97
2022-09-18T13:28:20.123Z,2.23
2022-09-18T13:30:51.795Z,2.30
2022-09-18T13:33:25.298Z,2.47
2022-09-18T13:35:56.974Z,2.57
2022-09-18T13:38:28.883Z,2.60
2022-09-18T13:41:05.538Z,2.40
2022-09-18T13:43:45.688Z,2.40
2022-09-18T13:46:31.028Z,2.70
2022-09-18T13:49:01.589Z,2.80
2022-09-18T13:51:33.151Z,2.60
2022-09-18T13:54:22.241Z,2.70
2022-09-18T13:57:19.820Z,3.30
2022-09-18T13:59:54.250Z,3.30
2022-09-18T14:02:27.062Z,3.33
2022-09-18T14:05:21.711Z,3.23
2022-09-18T14:07:57.949Z,3.10
2022-09-18T14:10:33.772Z,3.80
2022-09-18T14:13:31.698Z,3.60
2022-09-18T14:16:11.054Z,3.37
2022-09-18T14:18:56.333Z,3.37
2022-09-18T14:21:31.848Z,3.60
2022-09-18T14:24:23.920Z,3.50
2022-09-18T14:27:25.877Z,3.50
2022-09-18T14:30:00.132Z,3.63
2022-09-18T14:32:29.438Z,3.60
2022-09-18T14:35:23.481Z,3.40
2022-09-18T14:37:51.642Z,3.77
2022-09-18T14:40:22.130Z,3.60
2022-09-18T14:42:52.185Z,3.40
2022-09-18T14:45:27.740Z,3.80
2022-09-18T14:47:56.595Z,4.47
2022-09-18T14:50:31.099Z,3.90
2022-09-18T14:53:01.432Z,4.50
2022-09-18T14:55:34.583Z,3.93
2022-09-18T14:58:08.172Z,3.90
2022-09-18T15:00:38.571Z,3.73
2022-09-18T15:03:10.227Z,4.20
2022-09-18T15:05:39.030Z,3.80
2022-09-18T15:08:15.294Z,4.13
2022-09-18T15:10:47.567Z,3.67
2022-09-18T15:13:19.766Z,4.17
2022-09-18T15:15:48.537Z,4.20
2022-09-18T15:18:24.753Z,3.90
2022-09-18T15:20:55.154Z,4.40
2022-09-18T15:23:29.240Z,4.23
2022-09-18T15:26:01.491Z,4.37
2022-09-18T15:28:34.201Z,4.23
2022-09-18T15:31:09.545Z,4.47
2022-09-18T15:33:41.429Z,4.53
2022-09-18T15:36:23.174Z,4.40
2022-09-18T15:38:52.066Z,5.20
2022-09-18T15:41:31.696Z,5.40
2022-09-18T15:44:01.837Z,4.33
2022-09-18T15:46:31.393Z,4.67
2022-09-18T15:49:03.166Z,4.90
2022-09-18T15:51:32.684Z,5.33
2022-09-18T15:54:09.596Z,6.00
2022-09-18T15:56:40.558Z,4.90
2022-09-18T15:59:23.610Z,5.00
2022-09-18T16:01:51.903Z,5.20
2022-09-18T16:04:24.105Z,5.43
2022-09-18T16:06:55.609Z,5.67
2022-09-18T16:09:42.681Z,5.50
2022-09-18T16:12:35.117Z,5.63
2022-09-18T16:15:20.087Z,6.13
2022-09-18T16:18:04.574Z,5.10
2022-09-18T16:20:36.767Z,5.50
2022-09-18T16:23:21.340Z,5.33
2022-09-18T16:26:05.885Z,5.53
2022-09-18T16:28:38.011Z,6.20
2022-09-18T16:31:07.699Z,7.23
2022-09-18T16:33:36.619Z,7.07
2022-09-18T16:36:07.837Z,7.00
2022-09-18T16:38:36.511Z,7.80
2022-09-18T16:41:05.235Z,7.50
2022-09-18T16:43:33.466Z,6.80
2022-09-18T16:46:01.599Z,6.37
2022-09-18T16:48:31.632Z,5.20
2022-09-18T16:50:59.750Z,7.40
2022-09-18T16:53:28.675Z,6.40
2022-09-18T16:55:58.776Z,8.30
2022-09-18T16:58:28.755Z,6.73
2022-09-18T17:00:57.784Z,7.50
2022-09-18T17:03:30.232Z,6.47
2022-09-18T17:06:02.144Z,6.23
2022-09-18T17:08:30.875Z,6.03
2022-09-18T17:10:59.407Z,6.23
2022-09-18T17:13:28.672Z,6.17
2022-09-18T17:16:00.065Z,6.53
2022-09-18T17:18:30.074Z,6.50
2022-09-18T17:21:02.121Z,6.57
2022-09-18T17:23:31.205Z,7.27
2022-09-18T17:26:05.450Z,7.80
2022-09-18T17:28:33.670Z,10.20
2022-09-18T17:31:02.860Z,9.53
2022-09-18T17:33:30.998Z,10.57
2022-09-18T17:36:03.224Z,10.03
2022-09-18T17:38:38.081Z,9.13
2022-09-18T17:41:09.007Z,8.67
2022-09-18T17:43:37.750Z,8.47
2022-09-18T17:46:09.046Z,7.13
2022-09-18T17:48:37.477Z,7.17
2022-09-18T17:51:13.518Z,5.87
2022-09-18T17:53:42.919Z,5.43
2022-09-18T17:56:12.437Z,4.73
2022-09-18T17:58:42.340Z,3.77
2022-09-18T18:01:11.383Z,3.53
2022-09-18T18:03:39.688Z,3.83
2022-09-18T18:06:11.047Z,3.60
2022-09-18T18:08:39.389Z,3.40
2022-09-18T18:11:12.803Z,3.03
2022-09-18T18:13:42.805Z,3.10
2022-09-18T18:16:14.087Z,3.20
2022-09-18T18:18:43.230Z,2.90
2022-09-18T18:21:12.708Z,3.33
2022-09-18T18:23:40.884Z,3.00
2022-09-18T18:26:10.758Z,3.23
2022-09-18T18:28:40.334Z,3.47
2022-09-18T18:31:12.689Z,3.37
2022-09-18T18:33:42.618Z,3.90
2022-09-18T18:36:14.788Z,3.40
2022-09-18T18:38:44.554Z,3.67
2022-09-18T18:41:14.251Z,3.20
2022-09-18T18:43:45.013Z,3.33
2022-09-18T18:46:16.020Z,3.23
2022-09-18T18:48:46.332Z,3.50
2022-09-18T18:51:17.695Z,2.90
2022-09-18T18:53:46.152Z,3.83
2022-09-18T18:56:16.942Z,4.60
2022-09-18T18:58:45.468Z,5.27
2022-09-18T19:01:16.834Z,4.40
2022-09-18T19:03:51.810Z,3.70
2022-09-18T19:06:22.662Z,4.00
2022-09-18T19:08:55.700Z,3.33
2022-09-18T19:11:24.974Z,4.10
2022-09-18T19:13:56.639Z,4.07
2022-09-18T19:16:25.869Z,3.47
2022-09-18T19:18:55.241Z,4.20
2022-09-18T19:21:24.722Z,3.77
2022-09-18T19:23:54.872Z,3.37
2022-09-18T19:26:25.256Z,3.27
2022-09-18T19:28:55.322Z,3.37
2022-09-18T19:31:24.385Z,2.80
2022-09-18T19:33:53.317Z,3.13
2022-09-18T19:36:23.115Z,3.13
2022-09-18T19:38:56.633Z,2.90
2022-09-18T19:41:32.834Z,2.93
2022-09-18T19:44:03.747Z,2.63
2022-09-18T19:46:33.423Z,2.13
2022-09-18T19:49:01.686Z,2.03
2022-09-18T19:51:30.523Z,2.40
2022-09-18T19:54:00.009Z,2.37
2022-09-18T19:56:42.669Z,2.50
2022-09-18T19:59:11.637Z,2.17
2022-09-18T20:01:39.891Z,2.60
2022-09-18T20:04:08.182Z,2.73
2022-09-18T20:06:38.278Z,2.40
2022-09-18T20:09:07.911Z,2.73
2022-09-18T20:11:36.274Z,2.60
2022-09-18T20:14:04.452Z,2.13
2022-09-18T20:16:32.631Z,2.13
2022-09-18T20:19:01.136Z,2.40
2022-09-18T20:21:29.878Z,2.70
2022-09-18T20:23:59.713Z,2.63
2022-09-18T20:26:30.007Z,2.80
2022-09-18T20:28:58.374Z,2.90
2022-09-18T20:31:26.602Z,3.10
2022-09-18T20:33:55.935Z,2.80
2022-09-18T20:36:25.653Z,2.73
2022-09-18T20:38:57.877Z,2.67
2022-09-18T20:41:29.694Z,2.60
2022-09-18T20:44:04.984Z,2.70
2022-09-18T20:46:37.120Z,2.73
2022-09-18T20:49:06.360Z,2.93
2022-09-18T20:51:35.940Z,2.80
2022-09-18T20:54:06.916Z,2.97
2022-09-18T20:56:41.291Z,3.00
2022-09-18T20:59:12.369Z,3.17
2022-09-18T21:01:42.022Z,3.57
2022-09-18T21:04:17.395Z,3.80
2022-09-18T21:06:47.276Z,3.40
2022-09-18T21:09:16.087Z,2.93
2022-09-18T21:11:45.352Z,2.97
2022-09-18T21:14:16.694Z,3.00
2022-09-18T21:16:44.990Z,2.70
2022-09-18T21:19:14.526Z,3.10
2022-09-18T21:21:42.619Z,2.83
2022-09-18T21:24:10.966Z,3.10
2022-09-18T21:26:41.278Z,2.63
2022-09-18T21:29:13.028Z,3.20
2022-09-18T21:31:43.717Z,2.83
2022-09-18T21:34:13.219Z,3.10
2022-09-18T21:36:43.357Z,3.07
2022-09-18T21:39:12.241Z,3.47
2022-09-18T21:41:42.106Z,3.60
2022-09-18T21:44:13.436Z,3.20
2022-09-18T21:46:45.804Z,3.20
2022-09-18T21:49:16.102Z,3.00
2022-09-18T21:51:44.783Z,3.90
2022-09-18T21:54:15.591Z,3.83
2022-09-18T21:56:44.205Z,3.77
2022-09-18T21:59:13.142Z,4.10
2022-09-18T22:01:43.639Z,4.60
2022-09-18T22:04:12.397Z,4.07
2022-09-18T22:06:43.985Z,3.43
2022-09-18T22:09:14.949Z,3.60
2022-09-18T22:11:44.880Z,3.23
2022-09-18T22:14:19.066Z,3.63
2022-09-18T22:16:48.587Z,3.80
2022-09-18T22:19:18.025Z,4.60
2022-09-18T22:21:48.666Z,4.77
2022-09-18T22:24:19.868Z,4.63
2022-09-18T22:26:50.635Z,4.67
2022-09-18T22:29:21.314Z,4.37
2022-09-18T22:31:51.372Z,5.00
2022-09-18T22:34:23.129Z,4.70
2022-09-18T22:36:51.779Z,4.83
2022-09-18T22:39:21.698Z,5.33
2022-09-18T22:41:51.382Z,5.47
2022-09-18T22:44:21.307Z,5.20
2022-09-18T22:46:53.003Z,5.50
2022-09-18T22:49:22.543Z,5.13
2022-09-18T22:51:51.059Z,4.70
2022-09-18T22:54:23.816Z,4.93
2022-09-18T22:56:52.781Z,4.23
2022-09-18T22:59:22.218Z,4.20
2022-09-18T23:01:53.812Z,4.80
2022-09-18T23:04:24.028Z,4.70
2022-09-18T23:06:52.601Z,4.70
2022-09-18T23:09:21.463Z,5.10
2022-09-18T23:11:51.949Z,4.80
2022-09-18T23:14:21.866Z,4.70
2022-09-18T23:16:51.602Z,5.07
2022-09-18T23:19:22.570Z,4.80
2022-09-18T23:21:51.439Z,5.20
2022-09-18T23:24:19.731Z,5.17
2022-09-18T23:26:49.787Z,4.40
2022-09-18T23:29:20.771Z,5.17
2022-09-18T23:31:52.910Z,5.27
2022-09-18T23:34:23.455Z,5.10
2022-09-18T23:36:53.238Z,5.10
2022-09-18T23:39:24.309Z,5.80
2022-09-18T23:41:52.950Z,5.97
2022-09-18T23:44:22.678Z,5.77
2022-09-18T23:46:52.480Z,6.60
2022-09-18T23:49:23.424Z,6.67
2022-09-18T23:51:53.704Z,6.90
2022-09-18T23:54:23.305Z,6.90
2022-09-18T23:56:51.964Z,6.93
2022-09-18T23:59:22.972Z,6.93
